sensor_id;sensor_type;location;lat;lon;timestamp;temperature;humidity
39865;DHT22;25538;48.392;9.976;2022-08-06T00:00:06;18.10;99.90
39865;DHT22;25538;48.392;9.976;2022-08-06T00:56:40;19.30;99.90
39865;DHT22;25538;48.392;9.976;2022-08-06T01:15:28;17.60;99.90
39865;DHT22;25538;48.392;9.976;2022-08-06T01:33:22;17.90;99.90
39865;DHT22;25538;48.392;9.976;2022-08-06T01:38:52;17.50;99.90
39865;DHT22;25538;48.392;9.976;2022-08-06T01:41:23;17.70;99.90
39865;DHT22;25538;48.392;9.976;2022-08-06T01:44:09;17.90;99.90
39865;DHT22;25538;48.392;9.976;2022-08-06T01:47:18;17.90;99.90
39865;DHT22;25538;48.392;9.976;2022-08-06T01:49:51;17.90;99.90
39865;DHT22;25538;48.392;9.976;2022-08-06T01:52:19;17.80;99.90
39865;DHT22;25538;48.392;9.976;2022-08-06T01:54:50;18.00;99.90
39865;DHT22;25538;48.392;9.976;2022-08-06T01:57:19;18.20;99.90
39865;DHT22;25538;48.392;9.976;2022-08-06T01:59:56;18.20;99.90
39865;DHT22;25538;48.392;9.976;2022-08-06T02:02:27;18.10;99.90
39865;DHT22;25538;48.392;9.976;2022-08-06T02:05:02;17.80;99.90
39865;DHT22;25538;48.392;9.976;2022-08-06T02:07:36;18.00;99.90
39865;DHT22;25538;48.392;9.976;2022-08-06T02:10:05;17.80;99.90
39865;DHT22;25538;48.392;9.976;2022-08-06T02:12:39;17.60;99.90
39865;DHT22;25538;48.392;9.976;2022-08-06T02:15:16;17.60;99.90
39865;DHT22;25538;48.392;9.976;2022-08-06T02:17:50;17.50;99.90
39865;DHT22;25538;48.392;9.976;2022-08-06T02:20:29;17.70;99.90
39865;DHT22;25538;48.392;9.976;2022-08-06T02:22:58;17.50;99.90
39865;DHT22;25538;48.392;9.976;2022-08-06T02:25:25;17.60;99.90
39865;DHT22;25538;48.392;9.976;2022-08-06T02:27:54;17.50;99.90
39865;DHT22;25538;48.392;9.976;2022-08-06T02:30:22;17.40;99.90
39865;DHT22;25538;48.392;9.976;2022-08-06T02:32:49;17.40;99.90
39865;DHT22;25538;48.392;9.976;2022-08-06T02:35:18;17.50;99.90
39865;DHT22;25538;48.392;9.976;2022-08-06T02:38:00;17.60;99.90
39865;DHT22;25538;48.392;9.976;2022-08-06T02:40:41;17.60;99.90
39865;DHT22;25538;48.392;9.976;2022-08-06T02:43:39;17.60;99.90
39865;DHT22;25538;48.392;9.976;2022-08-06T02:46:27;17.80;99.90
39865;DHT22;25538;48.392;9.976;2022-08-06T02:49:28;17.70;99.90
39865;DHT22;25538;48.392;9.976;2022-08-06T02:55:18;17.70;99.90
39865;DHT22;25538;48.392;9.976;2022-08-06T02:58:19;17.60;99.90
39865;DHT22;25538;48.392;9.976;2022-08-06T03:00:59;17.60;99.90
39865;DHT22;25538;48.392;9.976;2022-08-06T03:03:41;17.70;99.90
39865;DHT22;25538;48.392;9.976;2022-08-06T03:06:48;17.70;99.90
39865;DHT22;25538;48.392;9.976;2022-08-06T03:20:57;17.60;99.90
39865;DHT22;25538;48.392;9.976;2022-08-06T04:01:51;17.80;99.90
39865;DHT22;25538;48.392;9.976;2022-08-06T04:08:58;17.70;99.90
39865;DHT22;25538;48.392;9.976;2022-08-06T04:11:27;17.70;99.90
39865;DHT22;25538;48.392;9.976;2022-08-06T04:14:13;17.60;99.90
39865;DHT22;25538;48.392;9.976;2022-08-06T04:16:58;17.60;99.90
39865;DHT22;25538;48.392;9.976;2022-08-06T04:23:43;17.70;99.90
39865;DHT22;25538;48.392;9.976;2022-08-06T04:27:00;17.60;99.90
39865;DHT22;25538;48.392;9.976;2022-08-06T04:29:53;17.70;99.90
39865;DHT22;25538;48.392;9.976;2022-08-06T04:35:49;17.70;99.90
39865;DHT22;25538;48.392;9.976;2022-08-06T04:42:36;18.10;99.90
39865;DHT22;25538;48.392;9.976;2022-08-06T04:45:32;18.20;99.90
39865;DHT22;25538;48.392;9.976;2022-08-06T04:48:48;18.20;99.90
39865;DHT22;25538;48.392;9.976;2022-08-06T04:51:21;18.00;99.90
39865;DHT22;25538;48.392;9.976;2022-08-06T05:00:39;17.80;99.90
39865;DHT22;25538;48.392;9.976;2022-08-06T05:10:31;17.70;99.90
39865;DHT22;25538;48.392;9.976;2022-08-06T05:13:39;17.80;99.90
39865;DHT22;25538;48.392;9.976;2022-08-06T05:16:38;18.00;99.90
39865;DHT22;25538;48.392;9.976;2022-08-06T05:19:26;18.00;99.90
39865;DHT22;25538;48.392;9.976;2022-08-06T05:22:32;18.10;99.90
39865;DHT22;25538;48.392;9.976;2022-08-06T05:25:32;18.10;99.90
39865;DHT22;25538;48.392;9.976;2022-08-06T05:28:10;18.10;99.90
39865;DHT22;25538;48.392;9.976;2022-08-06T05:34:47;18.20;99.90
39865;DHT22;25538;48.392;9.976;2022-08-06T05:37:24;18.10;99.90
39865;DHT22;25538;48.392;9.976;2022-08-06T05:40:53;18.10;99.90
39865;DHT22;25538;48.392;9.976;2022-08-06T05:43:53;18.20;99.90
39865;DHT22;25538;48.392;9.976;2022-08-06T05:47:13;18.20;99.90
39865;DHT22;25538;48.392;9.976;2022-08-06T05:50:30;18.30;99.90
39865;DHT22;25538;48.392;9.976;2022-08-06T06:04:26;18.40;99.90
39865;DHT22;25538;48.392;9.976;2022-08-06T06:07:27;18.50;99.90
39865;DHT22;25538;48.392;9.976;2022-08-06T06:25:18;18.50;99.90
39865;DHT22;25538;48.392;9.976;2022-08-06T06:32:07;18.80;99.90
39865;DHT22;25538;48.392;9.976;2022-08-06T06:35:25;19.00;99.90
39865;DHT22;25538;48.392;9.976;2022-08-06T06:41:47;19.40;99.90
39865;DHT22;25538;48.392;9.976;2022-08-06T06:54:50;19.50;99.90
39865;DHT22;25538;48.392;9.976;2022-08-06T06:57:29;20.00;99.90
39865;DHT22;25538;48.392;9.976;2022-08-06T06:59:59;20.20;99.90
39865;DHT22;25538;48.392;9.976;2022-08-06T07:02:27;20.10;99.90
39865;DHT22;25538;48.392;9.976;2022-08-06T07:04:56;19.90;99.90
39865;DHT22;25538;48.392;9.976;2022-08-06T07:07:23;20.10;99.90
39865;DHT22;25538;48.392;9.976;2022-08-06T07:09:50;20.20;99.90
39865;DHT22;25538;48.392;9.976;2022-08-06T07:12:19;20.20;99.90
39865;DHT22;25538;48.392;9.976;2022-08-06T07:14:49;20.00;99.90
39865;DHT22;25538;48.392;9.976;2022-08-06T07:17:17;20.00;99.90
39865;DHT22;25538;48.392;9.976;2022-08-06T07:19:46;20.20;99.90
39865;DHT22;25538;48.392;9.976;2022-08-06T07:22:14;20.40;99.90
39865;DHT22;25538;48.392;9.976;2022-08-06T07:24:41;20.50;99.90
39865;DHT22;25538;48.392;9.976;2022-08-06T07:27:08;20.90;99.90
39865;DHT22;25538;48.392;9.976;2022-08-06T07:29:35;21.00;99.90
39865;DHT22;25538;48.392;9.976;2022-08-06T07:32:02;21.00;99.90
39865;DHT22;25538;48.392;9.976;2022-08-06T07:34:29;20.90;99.90
39865;DHT22;25538;48.392;9.976;2022-08-06T07:36:56;20.80;99.90
39865;DHT22;25538;48.392;9.976;2022-08-06T07:39:33;20.70;99.90
39865;DHT22;25538;48.392;9.976;2022-08-06T07:42:07;20.80;99.90
39865;DHT22;25538;48.392;9.976;2022-08-06T07:44:41;20.80;99.90
39865;DHT22;25538;48.392;9.976;2022-08-06T07:47:08;20.90;99.90
39865;DHT22;25538;48.392;9.976;2022-08-06T07:49:41;20.80;99.90
39865;DHT22;25538;48.392;9.976;2022-08-06T07:52:09;20.70;99.90
39865;DHT22;25538;48.392;9.976;2022-08-06T07:54:38;20.70;99.90
39865;DHT22;25538;48.392;9.976;2022-08-06T07:57:06;20.70;99.90
39865;DHT22;25538;48.392;9.976;2022-08-06T07:59:33;20.90;99.90
39865;DHT22;25538;48.392;9.976;2022-08-06T08:02:00;20.80;99.90
39865;DHT22;25538;48.392;9.976;2022-08-06T08:04:28;21.10;99.90
39865;DHT22;25538;48.392;9.976;2022-08-06T08:07:14;21.10;99.90
39865;DHT22;25538;48.392;9.976;2022-08-06T08:09:42;21.50;99.90
39865;DHT22;25538;48.392;9.976;2022-08-06T08:12:12;21.50;99.90
39865;DHT22;25538;48.392;9.976;2022-08-06T08:14:40;21.60;99.90
39865;DHT22;25538;48.392;9.976;2022-08-06T08:17:08;21.60;99.90
39865;DHT22;25538;48.392;9.976;2022-08-06T08:19:34;21.50;99.90
39865;DHT22;25538;48.392;9.976;2022-08-06T08:22:03;21.60;99.90
39865;DHT22;25538;48.392;9.976;2022-08-06T08:24:32;21.80;99.90
39865;DHT22;25538;48.392;9.976;2022-08-06T08:26:59;22.00;99.90
39865;DHT22;25538;48.392;9.976;2022-08-06T08:29:26;22.00;99.90
39865;DHT22;25538;48.392;9.976;2022-08-06T08:31:54;22.20;99.90
39865;DHT22;25538;48.392;9.976;2022-08-06T08:34:21;22.40;99.90
39865;DHT22;25538;48.392;9.976;2022-08-06T08:36:47;22.50;99.90
39865;DHT22;25538;48.392;9.976;2022-08-06T08:39:13;22.60;99.90
39865;DHT22;25538;48.392;9.976;2022-08-06T08:41:46;23.00;99.90
39865;DHT22;25538;48.392;9.976;2022-08-06T08:44:13;23.00;99.90
39865;DHT22;25538;48.392;9.976;2022-08-06T08:46:42;22.50;99.90
39865;DHT22;25538;48.392;9.976;2022-08-06T08:49:39;22.60;99.90
39865;DHT22;25538;48.392;9.976;2022-08-06T08:52:08;22.60;99.90
39865;DHT22;25538;48.392;9.976;2022-08-06T08:54:36;22.40;99.90
39865;DHT22;25538;48.392;9.976;2022-08-06T08:57:04;22.20;99.90
39865;DHT22;25538;48.392;9.976;2022-08-06T08:59:31;21.90;99.90
39865;DHT22;25538;48.392;9.976;2022-08-06T09:01:58;21.90;99.90
39865;DHT22;25538;48.392;9.976;2022-08-06T09:04:26;21.70;99.90
39865;DHT22;25538;48.392;9.976;2022-08-06T09:06:52;21.60;99.90
39865;DHT22;25538;48.392;9.976;2022-08-06T09:09:18;21.70;99.90
39865;DHT22;25538;48.392;9.976;2022-08-06T09:11:45;21.80;99.90
39865;DHT22;25538;48.392;9.976;2022-08-06T09:14:12;22.10;99.90
39865;DHT22;25538;48.392;9.976;2022-08-06T09:16:38;22.40;99.90
39865;DHT22;25538;48.392;9.976;2022-08-06T09:19:04;22.80;99.90
39865;DHT22;25538;48.392;9.976;2022-08-06T09:21:32;23.00;99.90
39865;DHT22;25538;48.392;9.976;2022-08-06T09:23:58;23.40;99.90
39865;DHT22;25538;48.392;9.976;2022-08-06T09:26:25;23.60;99.90
39865;DHT22;25538;48.392;9.976;2022-08-06T09:28:51;23.70;99.90
39865;DHT22;25538;48.392;9.976;2022-08-06T09:31:19;23.70;99.90
39865;DHT22;25538;48.392;9.976;2022-08-06T09:34:00;23.70;99.90
39865;DHT22;25538;48.392;9.976;2022-08-06T09:36:28;23.80;99.90
39865;DHT22;25538;48.392;9.976;2022-08-06T09:38:56;24.30;99.90
39865;DHT22;25538;48.392;9.976;2022-08-06T09:41:25;24.60;99.90
39865;DHT22;25538;48.392;9.976;2022-08-06T09:43:56;24.60;99.90
39865;DHT22;25538;48.392;9.976;2022-08-06T09:46:46;24.70;99.90
39865;DHT22;25538;48.392;9.976;2022-08-06T09:49:14;24.60;99.90
39865;DHT22;25538;48.392;9.976;2022-08-06T09:51:41;24.60;99.90
39865;DHT22;25538;48.392;9.976;2022-08-06T09:54:09;24.70;99.90
39865;DHT22;25538;48.392;9.976;2022-08-06T09:56:36;25.00;99.90
39865;DHT22;25538;48.392;9.976;2022-08-06T09:59:05;24.70;99.90
39865;DHT22;25538;48.392;9.976;2022-08-06T10:01:49;24.50;99.90
39865;DHT22;25538;48.392;9.976;2022-08-06T10:04:28;24.60;99.90
39865;DHT22;25538;48.392;9.976;2022-08-06T10:06:56;24.70;99.90
39865;DHT22;25538;48.392;9.976;2022-08-06T10:09:23;25.30;98.80
39865;DHT22;25538;48.392;9.976;2022-08-06T10:11:49;25.90;98.30
39865;DHT22;25538;48.392;9.976;2022-08-06T10:17:05;27.00;95.60
39865;DHT22;25538;48.392;9.976;2022-08-06T10:19:31;27.40;92.90
39865;DHT22;25538;48.392;9.976;2022-08-06T10:22:07;27.00;94.40
39865;DHT22;25538;48.392;9.976;2022-08-06T10:24:41;26.70;94.60
39865;DHT22;25538;48.392;9.976;2022-08-06T10:27:09;26.60;93.60
39865;DHT22;25538;48.392;9.976;2022-08-06T10:29:39;26.50;93.20
39865;DHT22;25538;48.392;9.976;2022-08-06T10:32:09;26.60;92.50
39865;DHT22;25538;48.392;9.976;2022-08-06T10:34:36;26.30;92.60
39865;DHT22;25538;48.392;9.976;2022-08-06T10:37:05;26.20;93.70
39865;DHT22;25538;48.392;9.976;2022-08-06T10:39:40;26.40;92.60
39865;DHT22;25538;48.392;9.976;2022-08-06T10:42:08;26.90;91.20
39865;DHT22;25538;48.392;9.976;2022-08-06T10:44:34;27.50;90.50
39865;DHT22;25538;48.392;9.976;2022-08-06T10:47:02;27.60;90.50
39865;DHT22;25538;48.392;9.976;2022-08-06T10:49:29;28.20;90.20
39865;DHT22;25538;48.392;9.976;2022-08-06T10:51:56;29.20;85.30
39865;DHT22;25538;48.392;9.976;2022-08-06T10:54:23;29.40;81.00
39865;DHT22;25538;48.392;9.976;2022-08-06T10:56:50;29.80;79.00
39865;DHT22;25538;48.392;9.976;2022-08-06T10:59:17;30.50;76.00
39865;DHT22;25538;48.392;9.976;2022-08-06T11:02:03;30.50;75.90
39865;DHT22;25538;48.392;9.976;2022-08-06T11:12:49;32.10;62.50
39865;DHT22;25538;48.392;9.976;2022-08-06T11:15:17;31.20;63.20
39865;DHT22;25538;48.392;9.976;2022-08-06T11:17:54;31.80;61.90
39865;DHT22;25538;48.392;9.976;2022-08-06T11:20:50;32.40;59.90
39865;DHT22;25538;48.392;9.976;2022-08-06T11:25:50;33.40;57.60
39865;DHT22;25538;48.392;9.976;2022-08-06T11:28:18;33.90;55.00
39865;DHT22;25538;48.392;9.976;2022-08-06T11:30:52;33.80;54.60
39865;DHT22;25538;48.392;9.976;2022-08-06T11:36:06;32.50;55.60
39865;DHT22;25538;48.392;9.976;2022-08-06T11:41:18;32.50;57.40
39865;DHT22;25538;48.392;9.976;2022-08-06T11:46:40;31.20;57.40
39865;DHT22;25538;48.392;9.976;2022-08-06T11:49:24;31.30;58.20
39865;DHT22;25538;48.392;9.976;2022-08-06T11:52:00;31.50;56.90
39865;DHT22;25538;48.392;9.976;2022-08-06T11:59:46;29.50;61.10
39865;DHT22;25538;48.392;9.976;2022-08-06T12:07:43;27.50;63.30
39865;DHT22;25538;48.392;9.976;2022-08-06T12:10:15;27.60;63.80
39865;DHT22;25538;48.392;9.976;2022-08-06T12:12:42;28.00;62.60
39865;DHT22;25538;48.392;9.976;2022-08-06T12:17:43;29.30;61.90
39865;DHT22;25538;48.392;9.976;2022-08-06T12:20:41;30.40;59.60
39865;DHT22;25538;48.392;9.976;2022-08-06T12:23:10;31.40;56.40
39865;DHT22;25538;48.392;9.976;2022-08-06T12:25:38;30.60;56.80
39865;DHT22;25538;48.392;9.976;2022-08-06T12:28:05;30.10;57.80
39865;DHT22;25538;48.392;9.976;2022-08-06T12:33:07;29.30;59.30
39865;DHT22;25538;48.392;9.976;2022-08-06T12:35:35;29.10;59.10
39865;DHT22;25538;48.392;9.976;2022-08-06T12:38:01;28.50;60.30
39865;DHT22;25538;48.392;9.976;2022-08-06T12:40:27;28.30;59.90
39865;DHT22;25538;48.392;9.976;2022-08-06T12:45:36;28.00;62.50
39865;DHT22;25538;48.392;9.976;2022-08-06T12:50:31;28.20;62.70
39865;DHT22;25538;48.392;9.976;2022-08-06T12:53:07;28.10;61.90
39865;DHT22;25538;48.392;9.976;2022-08-06T12:55:44;28.20;62.70
39865;DHT22;25538;48.392;9.976;2022-08-06T12:58:11;28.10;63.30
39865;DHT22;25538;48.392;9.976;2022-08-06T13:00:40;28.00;62.50
39865;DHT22;25538;48.392;9.976;2022-08-06T13:03:07;28.10;63.10
39865;DHT22;25538;48.392;9.976;2022-08-06T13:05:34;28.00;63.20
39865;DHT22;25538;48.392;9.976;2022-08-06T13:08:01;27.90;62.20
39865;DHT22;25538;48.392;9.976;2022-08-06T13:10:27;27.50;60.90
39865;DHT22;25538;48.392;9.976;2022-08-06T13:13:05;26.80;63.00
39865;DHT22;25538;48.392;9.976;2022-08-06T13:15:33;26.60;66.70
39865;DHT22;25538;48.392;9.976;2022-08-06T13:18:16;26.70;65.70
39865;DHT22;25538;48.392;9.976;2022-08-06T13:20:43;27.20;64.20
39865;DHT22;25538;48.392;9.976;2022-08-06T13:23:11;27.50;64.90
39865;DHT22;25538;48.392;9.976;2022-08-06T13:25:47;28.10;63.50
39865;DHT22;25538;48.392;9.976;2022-08-06T13:28:21;29.00;63.40
39865;DHT22;25538;48.392;9.976;2022-08-06T13:30:48;30.40;60.40
39865;DHT22;25538;48.392;9.976;2022-08-06T13:33:24;31.40;55.90
39865;DHT22;25538;48.392;9.976;2022-08-06T13:35:52;31.10;55.90
39865;DHT22;25538;48.392;9.976;2022-08-06T13:38:31;30.90;55.20
39865;DHT22;25538;48.392;9.976;2022-08-06T13:40:58;30.90;55.50
39865;DHT22;25538;48.392;9.976;2022-08-06T13:43:38;30.40;56.10
39865;DHT22;25538;48.392;9.976;2022-08-06T13:46:10;30.40;56.90
39865;DHT22;25538;48.392;9.976;2022-08-06T13:48:36;30.20;57.20
39865;DHT22;25538;48.392;9.976;2022-08-06T13:51:02;30.90;57.00
39865;DHT22;25538;48.392;9.976;2022-08-06T13:53:28;31.50;55.80
39865;DHT22;25538;48.392;9.976;2022-08-06T13:55:54;31.60;54.40
39865;DHT22;25538;48.392;9.976;2022-08-06T13:58:20;31.90;54.40
39865;DHT22;25538;48.392;9.976;2022-08-06T14:00:46;32.20;54.10
39865;DHT22;25538;48.392;9.976;2022-08-06T14:03:13;32.00;54.10
39865;DHT22;25538;48.392;9.976;2022-08-06T14:05:39;31.90;53.00
39865;DHT22;25538;48.392;9.976;2022-08-06T14:08:05;31.50;54.30
39865;DHT22;25538;48.392;9.976;2022-08-06T14:10:31;31.00;54.60
39865;DHT22;25538;48.392;9.976;2022-08-06T14:12:57;30.60;55.20
39865;DHT22;25538;48.392;9.976;2022-08-06T14:15:46;30.00;56.30
39865;DHT22;25538;48.392;9.976;2022-08-06T14:18:17;30.40;56.70
39865;DHT22;25538;48.392;9.976;2022-08-06T14:20:43;31.00;54.20
39865;DHT22;25538;48.392;9.976;2022-08-06T14:23:10;30.10;55.30
39865;DHT22;25538;48.392;9.976;2022-08-06T14:25:36;29.30;57.30
39865;DHT22;25538;48.392;9.976;2022-08-06T14:28:03;29.10;57.30
39865;DHT22;25538;48.392;9.976;2022-08-06T14:30:31;30.50;56.90
39865;DHT22;25538;48.392;9.976;2022-08-06T14:32:59;32.80;51.80
39865;DHT22;25538;48.392;9.976;2022-08-06T14:35:26;34.70;49.50
39865;DHT22;25538;48.392;9.976;2022-08-06T14:37:52;36.00;47.30
39865;DHT22;25538;48.392;9.976;2022-08-06T14:40:20;36.70;45.30
39865;DHT22;25538;48.392;9.976;2022-08-06T14:43:05;36.70;46.80
39865;DHT22;25538;48.392;9.976;2022-08-06T14:45:49;36.80;45.20
39865;DHT22;25538;48.392;9.976;2022-08-06T14:48:15;36.70;43.90
39865;DHT22;25538;48.392;9.976;2022-08-06T14:50:41;36.50;44.80
39865;DHT22;25538;48.392;9.976;2022-08-06T14:53:07;36.30;44.10
39865;DHT22;25538;48.392;9.976;2022-08-06T14:55:33;35.90;45.10
39865;DHT22;25538;48.392;9.976;2022-08-06T14:57:59;35.70;46.40
39865;DHT22;25538;48.392;9.976;2022-08-06T15:00:25;35.70;45.80
39865;DHT22;25538;48.392;9.976;2022-08-06T15:02:50;34.90;46.20
39865;DHT22;25538;48.392;9.976;2022-08-06T15:05:17;33.10;48.90
39865;DHT22;25538;48.392;9.976;2022-08-06T15:07:43;31.20;51.50
39865;DHT22;25538;48.392;9.976;2022-08-06T15:10:10;29.70;54.10
39865;DHT22;25538;48.392;9.976;2022-08-06T15:12:36;29.40;54.70
39865;DHT22;25538;48.392;9.976;2022-08-06T15:15:03;29.00;55.40
39865;DHT22;25538;48.392;9.976;2022-08-06T15:17:30;28.90;56.60
39865;DHT22;25538;48.392;9.976;2022-08-06T15:19:56;29.50;55.00
39865;DHT22;25538;48.392;9.976;2022-08-06T15:22:22;30.10;54.70
39865;DHT22;25538;48.392;9.976;2022-08-06T15:24:48;31.00;53.60
39865;DHT22;25538;48.392;9.976;2022-08-06T15:27:13;31.00;53.00
39865;DHT22;25538;48.392;9.976;2022-08-06T15:29:46;30.60;52.30
39865;DHT22;25538;48.392;9.976;2022-08-06T15:32:12;29.60;54.60
39865;DHT22;25538;48.392;9.976;2022-08-06T15:34:38;28.70;56.90
39865;DHT22;25538;48.392;9.976;2022-08-06T15:37:04;28.10;57.80
39865;DHT22;25538;48.392;9.976;2022-08-06T15:39:32;27.60;58.60
39865;DHT22;25538;48.392;9.976;2022-08-06T15:41:59;27.30;59.20
39865;DHT22;25538;48.392;9.976;2022-08-06T15:44:25;27.20;59.80
39865;DHT22;25538;48.392;9.976;2022-08-06T15:46:51;27.10;60.50
39865;DHT22;25538;48.392;9.976;2022-08-06T15:49:17;26.70;60.70
39865;DHT22;25538;48.392;9.976;2022-08-06T15:51:43;26.30;62.50
39865;DHT22;25538;48.392;9.976;2022-08-06T15:54:10;26.20;64.00
39865;DHT22;25538;48.392;9.976;2022-08-06T15:56:36;26.20;63.80
39865;DHT22;25538;48.392;9.976;2022-08-06T15:59:03;26.20;63.80
39865;DHT22;25538;48.392;9.976;2022-08-06T16:01:30;26.60;62.80
39865;DHT22;25538;48.392;9.976;2022-08-06T16:03:56;26.80;61.90
39865;DHT22;25538;48.392;9.976;2022-08-06T16:06:22;26.90;61.60
39865;DHT22;25538;48.392;9.976;2022-08-06T16:08:48;26.90;62.20
39865;DHT22;25538;48.392;9.976;2022-08-06T16:11:15;26.90;62.40
39865;DHT22;25538;48.392;9.976;2022-08-06T16:13:41;26.80;62.50
39865;DHT22;25538;48.392;9.976;2022-08-06T16:16:07;26.60;61.20
39865;DHT22;25538;48.392;9.976;2022-08-06T16:18:33;26.70;60.90
39865;DHT22;25538;48.392;9.976;2022-08-06T16:20:59;26.70;60.40
39865;DHT22;25538;48.392;9.976;2022-08-06T16:23:26;26.50;61.20
39865;DHT22;25538;48.392;9.976;2022-08-06T16:25:52;26.40;61.70
39865;DHT22;25538;48.392;9.976;2022-08-06T16:28:18;26.40;62.30
39865;DHT22;25538;48.392;9.976;2022-08-06T16:30:44;26.50;61.30
39865;DHT22;25538;48.392;9.976;2022-08-06T16:33:09;26.50;62.60
39865;DHT22;25538;48.392;9.976;2022-08-06T16:35:36;26.20;62.90
39865;DHT22;25538;48.392;9.976;2022-08-06T16:38:02;26.00;63.40
39865;DHT22;25538;48.392;9.976;2022-08-06T16:40:29;25.70;64.30
39865;DHT22;25538;48.392;9.976;2022-08-06T16:42:55;25.40;65.30
39865;DHT22;25538;48.392;9.976;2022-08-06T16:45:23;25.10;66.20
39865;DHT22;25538;48.392;9.976;2022-08-06T16:47:51;25.10;67.00
39865;DHT22;25538;48.392;9.976;2022-08-06T16:50:18;25.30;66.70
39865;DHT22;25538;48.392;9.976;2022-08-06T16:52:44;25.40;65.70
39865;DHT22;25538;48.392;9.976;2022-08-06T16:55:10;25.70;65.50
39865;DHT22;25538;48.392;9.976;2022-08-06T16:57:36;25.60;64.00
39865;DHT22;25538;48.392;9.976;2022-08-06T17:00:09;25.20;65.00
39865;DHT22;25538;48.392;9.976;2022-08-06T17:02:39;25.10;64.80
39865;DHT22;25538;48.392;9.976;2022-08-06T17:05:15;24.80;65.10
39865;DHT22;25538;48.392;9.976;2022-08-06T17:07:43;24.70;65.80
39865;DHT22;25538;48.392;9.976;2022-08-06T17:10:12;24.60;67.10
39865;DHT22;25538;48.392;9.976;2022-08-06T17:12:42;24.70;67.70
39865;DHT22;25538;48.392;9.976;2022-08-06T17:15:08;24.60;68.20
39865;DHT22;25538;48.392;9.976;2022-08-06T17:17:34;24.70;67.50
39865;DHT22;25538;48.392;9.976;2022-08-06T17:20:02;24.60;68.60
39865;DHT22;25538;48.392;9.976;2022-08-06T17:22:29;24.60;68.30
39865;DHT22;25538;48.392;9.976;2022-08-06T17:24:55;24.50;68.00
39865;DHT22;25538;48.392;9.976;2022-08-06T17:27:21;24.30;68.30
39865;DHT22;25538;48.392;9.976;2022-08-06T17:29:47;24.20;69.00
39865;DHT22;25538;48.392;9.976;2022-08-06T17:32:14;24.10;69.50
39865;DHT22;25538;48.392;9.976;2022-08-06T17:34:40;24.00;69.40
39865;DHT22;25538;48.392;9.976;2022-08-06T17:37:06;23.90;70.50
39865;DHT22;25538;48.392;9.976;2022-08-06T17:39:32;23.80;72.20
39865;DHT22;25538;48.392;9.976;2022-08-06T17:41:58;23.70;73.10
39865;DHT22;25538;48.392;9.976;2022-08-06T17:44:24;23.60;72.90
39865;DHT22;25538;48.392;9.976;2022-08-06T17:46:50;23.30;74.30
39865;DHT22;25538;48.392;9.976;2022-08-06T17:49:16;23.10;75.50
39865;DHT22;25538;48.392;9.976;2022-08-06T17:51:46;23.00;76.60
39865;DHT22;25538;48.392;9.976;2022-08-06T17:54:12;22.90;77.60
39865;DHT22;25538;48.392;9.976;2022-08-06T17:56:38;22.90;78.10
39865;DHT22;25538;48.392;9.976;2022-08-06T17:59:06;22.80;79.00
39865;DHT22;25538;48.392;9.976;2022-08-06T18:01:33;22.60;79.50
39865;DHT22;25538;48.392;9.976;2022-08-06T18:03:59;22.50;80.30
39865;DHT22;25538;48.392;9.976;2022-08-06T18:06:32;22.50;81.00
39865;DHT22;25538;48.392;9.976;2022-08-06T18:08:59;22.40;82.70
39865;DHT22;25538;48.392;9.976;2022-08-06T18:11:26;22.40;82.00
39865;DHT22;25538;48.392;9.976;2022-08-06T18:13:52;22.30;82.10
39865;DHT22;25538;48.392;9.976;2022-08-06T18:16:19;22.20;83.30
39865;DHT22;25538;48.392;9.976;2022-08-06T18:18:45;22.10;84.40
39865;DHT22;25538;48.392;9.976;2022-08-06T18:21:17;21.90;88.00
39865;DHT22;25538;48.392;9.976;2022-08-06T18:23:43;21.70;89.80
39865;DHT22;25538;48.392;9.976;2022-08-06T18:26:09;21.60;90.80
39865;DHT22;25538;48.392;9.976;2022-08-06T18:28:36;21.50;91.50
39865;DHT22;25538;48.392;9.976;2022-08-06T18:31:02;21.40;92.10
39865;DHT22;25538;48.392;9.976;2022-08-06T18:33:28;21.30;92.70
39865;DHT22;25538;48.392;9.976;2022-08-06T18:35:55;21.30;93.10
39865;DHT22;25538;48.392;9.976;2022-08-06T18:38:21;21.30;93.60
39865;DHT22;25538;48.392;9.976;2022-08-06T18:40:47;21.30;94.20
39865;DHT22;25538;48.392;9.976;2022-08-06T18:43:13;21.30;94.70
39865;DHT22;25538;48.392;9.976;2022-08-06T18:45:39;21.30;95.30
39865;DHT22;25538;48.392;9.976;2022-08-06T18:48:07;21.20;95.80
39865;DHT22;25538;48.392;9.976;2022-08-06T18:50:33;21.20;96.40
39865;DHT22;25538;48.392;9.976;2022-08-06T18:52:59;21.10;97.30
39865;DHT22;25538;48.392;9.976;2022-08-06T18:55:29;21.00;98.40
39865;DHT22;25538;48.392;9.976;2022-08-06T18:57:56;20.90;99.60
39865;DHT22;25538;48.392;9.976;2022-08-06T19:00:24;20.90;99.90
39865;DHT22;25538;48.392;9.976;2022-08-06T19:02:51;20.90;99.90
39865;DHT22;25538;48.392;9.976;2022-08-06T19:05:17;20.90;99.90
39865;DHT22;25538;48.392;9.976;2022-08-06T19:07:43;20.90;99.90
39865;DHT22;25538;48.392;9.976;2022-08-06T19:10:09;20.80;99.90
39865;DHT22;25538;48.392;9.976;2022-08-06T19:12:35;20.90;99.90
39865;DHT22;25538;48.392;9.976;2022-08-06T19:15:03;20.80;99.90
39865;DHT22;25538;48.392;9.976;2022-08-06T19:17:29;20.70;99.90
39865;DHT22;25538;48.392;9.976;2022-08-06T19:19:55;20.60;99.90
39865;DHT22;25538;48.392;9.976;2022-08-06T19:22:22;20.60;99.90
39865;DHT22;25538;48.392;9.976;2022-08-06T19:24:49;20.60;99.90
39865;DHT22;25538;48.392;9.976;2022-08-06T19:27:16;20.60;99.90
39865;DHT22;25538;48.392;9.976;2022-08-06T19:29:42;20.60;99.90
39865;DHT22;25538;48.392;9.976;2022-08-06T19:32:08;20.60;99.90
39865;DHT22;25538;48.392;9.976;2022-08-06T19:34:34;20.70;99.90
39865;DHT22;25538;48.392;9.976;2022-08-06T19:37:00;20.60;99.90
39865;DHT22;25538;48.392;9.976;2022-08-06T19:39:26;20.60;99.90
39865;DHT22;25538;48.392;9.976;2022-08-06T19:41:53;20.60;99.90
39865;DHT22;25538;48.392;9.976;2022-08-06T19:44:20;20.60;99.90
39865;DHT22;25538;48.392;9.976;2022-08-06T19:46:46;20.60;99.90
39865;DHT22;25538;48.392;9.976;2022-08-06T19:49:12;20.60;99.90
39865;DHT22;25538;48.392;9.976;2022-08-06T19:51:38;20.70;99.90
39865;DHT22;25538;48.392;9.976;2022-08-06T19:54:05;20.70;99.90
39865;DHT22;25538;48.392;9.976;2022-08-06T19:56:32;20.70;99.90
39865;DHT22;25538;48.392;9.976;2022-08-06T19:58:59;20.70;99.90
39865;DHT22;25538;48.392;9.976;2022-08-06T20:01:25;20.70;99.90
39865;DHT22;25538;48.392;9.976;2022-08-06T20:03:51;20.80;99.90
39865;DHT22;25538;48.392;9.976;2022-08-06T20:06:17;20.80;99.90
39865;DHT22;25538;48.392;9.976;2022-08-06T20:08:44;20.80;99.90
39865;DHT22;25538;48.392;9.976;2022-08-06T20:11:11;20.70;99.90
39865;DHT22;25538;48.392;9.976;2022-08-06T20:13:37;20.70;99.90
39865;DHT22;25538;48.392;9.976;2022-08-06T20:16:04;20.60;99.90
39865;DHT22;25538;48.392;9.976;2022-08-06T20:18:31;20.50;99.90